Laurel, Nebraska
Current Conditions -  °F | °C
As of 11:55 AM on Friday 21 Nov 2014 (Local Time) from KLCG Reporting Station
Clear Clear  
Wind Chill: 21°   Ceiling: Unl
Heat Index: 33°   Visibility: 10mi
Dew Point: 24°   Wind: 21mph
Humidity: 69%   Direction: 190°S
Pressure: 30.07"   Gusts: NA
Location:  42.43°N, 97.09°W
Report Text: KLCG 211755Z AUTO 19018KT 10SM CLR 01/M04 A3007 RMK AO2 T00071044 10008 21081
Loading
Personal Weather Stations






























Interactive Weather Map New forecast layout! Learn more

10-Day Weather Forecast

Advertisements
Track Severe Weather on mobile